createdAt,value
2022-12-14T00:00:17.851Z,3.92
2022-12-14T00:02:50.016Z,4.20
2022-12-14T00:05:22.177Z,4.70
2022-12-14T00:07:54.147Z,4.15
2022-12-14T00:10:26.143Z,4.55
2022-12-14T00:12:58.404Z,4.62
2022-12-14T00:15:30.383Z,5.00
2022-12-14T00:18:02.405Z,4.33
2022-12-14T00:20:34.978Z,4.97
2022-12-14T00:23:06.934Z,3.92
2022-12-14T00:25:38.749Z,4.80
2022-12-14T00:28:10.710Z,4.60
2022-12-14T00:30:42.757Z,5.33
2022-12-14T00:33:14.774Z,4.58
2022-12-14T00:35:46.909Z,5.28
2022-12-14T00:38:19.080Z,5.45
2022-12-14T00:40:51.239Z,2.47
2022-12-14T00:43:23.880Z,5.85
2022-12-14T00:45:56.206Z,4.78
2022-12-14T00:48:29.421Z,4.35
2022-12-14T00:51:01.685Z,4.17
2022-12-14T00:53:33.566Z,5.03
2022-12-14T00:56:09.676Z,5.40
2022-12-14T00:58:41.661Z,5.58
2022-12-14T01:01:14.178Z,5.22
2022-12-14T01:03:46.277Z,4.67
2022-12-14T01:06:23.890Z,7.90
2022-12-14T01:08:56.210Z,5.30
2022-12-14T01:11:28.341Z,4.00
2022-12-14T01:14:00.253Z,4.72
2022-12-14T01:16:32.229Z,5.58
2022-12-14T01:19:05.481Z,5.00
2022-12-14T01:21:37.363Z,5.55
2022-12-14T01:24:09.183Z,5.10
2022-12-14T01:26:41.498Z,5.45
2022-12-14T01:29:16.247Z,5.65
2022-12-14T01:31:48.635Z,5.28
2022-12-14T01:34:20.894Z,5.00
2022-12-14T01:36:52.812Z,5.35
2022-12-14T01:39:24.876Z,4.97
2022-12-14T01:41:56.776Z,6.00
2022-12-14T01:44:31.761Z,4.47
2022-12-14T01:47:12.379Z,5.30
2022-12-14T01:49:47.409Z,4.78
2022-12-14T01:52:43.292Z,4.90
2022-12-14T01:55:20.934Z,4.85
2022-12-14T01:58:01.601Z,4.47
2022-12-14T02:00:33.881Z,5.60
2022-12-14T02:03:17.446Z,5.30
2022-12-14T02:05:55.464Z,4.78
2022-12-14T02:08:28.167Z,4.67
2022-12-14T02:11:00.890Z,5.62
2022-12-14T02:13:38.620Z,5.70
2022-12-14T02:16:11.690Z,5.17
2022-12-14T02:18:44.428Z,4.87
2022-12-14T02:21:36.855Z,4.57
2022-12-14T02:24:30.804Z,4.03
2022-12-14T02:27:14.952Z,5.15
2022-12-14T02:29:55.352Z,7.30
2022-12-14T02:32:36.166Z,5.92
2022-12-14T02:35:26.943Z,5.97
2022-12-14T02:38:19.584Z,6.12
2022-12-14T02:41:00.197Z,6.03
2022-12-14T02:43:47.357Z,6.17
2022-12-14T02:46:24.865Z,5.85
2022-12-14T02:49:05.666Z,5.58
2022-12-14T02:51:43.571Z,6.08
2022-12-14T02:54:18.427Z,5.83
2022-12-14T02:56:53.672Z,6.50
2022-12-14T02:59:26.683Z,5.72
2022-12-14T03:02:00.458Z,5.55
2022-12-14T03:04:32.828Z,6.25
2022-12-14T03:07:07.883Z,5.60
2022-12-14T03:09:39.901Z,5.60
2022-12-14T03:12:14.526Z,6.40
2022-12-14T03:14:49.525Z,5.40
2022-12-14T03:17:27.090Z,5.40
2022-12-14T03:20:02.044Z,5.10
2022-12-14T03:22:39.658Z,5.58
2022-12-14T03:25:14.613Z,6.28
2022-12-14T03:27:49.689Z,5.47
2022-12-14T03:30:44.360Z,6.47
2022-12-14T03:32:58.574Z,5.80
2022-12-14T03:35:42.945Z,5.65
2022-12-14T03:38:20.560Z,5.67
2022-12-14T03:40:58.198Z,5.87
2022-12-14T03:43:39.630Z,5.40
2022-12-14T03:46:35.357Z,5.00
2022-12-14T03:49:13.401Z,5.33
2022-12-14T03:51:57.604Z,5.65
2022-12-14T03:54:42.032Z,5.95
2022-12-14T03:57:19.950Z,5.50
2022-12-14T03:59:54.997Z,3.08
2022-12-14T04:02:40.605Z,6.97
2022-12-14T04:05:13.694Z,5.78
2022-12-14T04:07:57.373Z,5.40
2022-12-14T04:10:49.688Z,5.97
2022-12-14T04:13:42.339Z,6.25
2022-12-14T04:16:34.936Z,5.05
2022-12-14T04:19:14.130Z,5.80
2022-12-14T04:21:55.048Z,6.08
2022-12-14T04:24:56.356Z,5.45
2022-12-14T04:27:57.977Z,5.75
2022-12-14T04:30:32.683Z,6.17
2022-12-14T04:33:09.314Z,5.95
2022-12-14T04:35:43.419Z,6.37
2022-12-14T04:40:56.639Z,5.83
2022-12-14T04:43:31.695Z,6.33
2022-12-14T04:46:09.247Z,5.25
2022-12-14T04:48:47.446Z,6.60
2022-12-14T04:51:34.675Z,7.00
2022-12-14T04:54:16.258Z,7.20
2022-12-14T04:56:54.529Z,4.85
2022-12-14T04:59:27.473Z,6.62
2022-12-14T05:02:11.166Z,4.20
2022-12-14T05:05:07.610Z,4.87
2022-12-14T05:08:07.355Z,6.62
2022-12-14T05:11:39.641Z,7.35
2022-12-14T05:13:48.914Z,6.42
2022-12-14T05:16:24.775Z,7.40
2022-12-14T05:18:56.975Z,7.72
2022-12-14T05:21:48.029Z,7.78
2022-12-14T05:24:20.322Z,9.25
2022-12-14T05:26:52.406Z,7.30
2022-12-14T05:29:24.661Z,6.90
2022-12-14T05:31:58.289Z,6.70
2022-12-14T05:34:31.110Z,7.45
2022-12-14T05:37:06.164Z,7.37
2022-12-14T05:39:38.143Z,7.47
2022-12-14T05:42:10.850Z,7.97
2022-12-14T05:44:43.104Z,8.18
2022-12-14T05:47:15.875Z,7.65
2022-12-14T05:49:49.174Z,6.05
2022-12-14T05:52:22.318Z,7.42
2022-12-14T05:54:59.449Z,7.10
2022-12-14T05:57:29.922Z,6.85
2022-12-14T06:00:02.545Z,6.57
2022-12-14T06:02:36.048Z,14.47
2022-12-14T06:05:09.162Z,7.65
2022-12-14T06:07:41.791Z,7.22
2022-12-14T06:10:13.625Z,7.45
2022-12-14T06:12:46.031Z,9.43
2022-12-14T06:15:20.285Z,6.28
2022-12-14T06:17:52.720Z,6.80
2022-12-14T06:20:24.844Z,8.30
2022-12-14T06:22:57.533Z,9.80
2022-12-14T06:25:30.146Z,7.73
2022-12-14T06:28:02.595Z,7.60
2022-12-14T06:30:35.204Z,8.05
2022-12-14T06:33:08.299Z,9.10
2022-12-14T06:35:45.467Z,11.30
2022-12-14T06:38:18.644Z,16.60
2022-12-14T06:40:50.979Z,10.35
2022-12-14T06:43:28.201Z,8.23
2022-12-14T06:46:01.308Z,9.70
2022-12-14T06:48:34.134Z,8.63
2022-12-14T06:51:08.179Z,8.88
2022-12-14T06:53:40.311Z,7.60
2022-12-14T06:56:15.385Z,8.60
2022-12-14T06:58:47.802Z,8.30
2022-12-14T07:01:22.803Z,9.55
2022-12-14T07:04:00.256Z,9.05
2022-12-14T07:06:36.202Z,8.75
2022-12-14T07:09:11.526Z,8.95
2022-12-14T07:11:43.735Z,8.63
2022-12-14T07:14:19.177Z,8.55
2022-12-14T07:19:23.144Z,9.15
2022-12-14T07:21:55.608Z,8.78
2022-12-14T07:24:27.769Z,8.83
2022-12-14T07:27:05.285Z,10.65
2022-12-14T07:29:37.322Z,9.03
2022-12-14T07:32:09.332Z,9.40
2022-12-14T07:34:41.827Z,7.92
2022-12-14T07:37:15.473Z,9.00
2022-12-14T07:42:19.876Z,8.13
2022-12-14T07:44:52.659Z,10.10
2022-12-14T07:47:24.742Z,7.95
2022-12-14T07:49:57.157Z,9.08
2022-12-14T07:52:34.218Z,10.98
2022-12-14T07:55:03.779Z,9.90
2022-12-14T07:57:36.038Z,10.82
2022-12-14T08:00:08.809Z,9.30
2022-12-14T08:02:43.756Z,10.25
2022-12-14T08:05:15.969Z,10.38
2022-12-14T08:07:48.143Z,12.03
2022-12-14T08:10:20.684Z,13.93
2022-12-14T08:12:53.385Z,11.50
2022-12-14T08:15:26.013Z,10.75
2022-12-14T08:17:59.021Z,11.57
2022-12-14T08:20:32.157Z,9.00
2022-12-14T08:23:05.628Z,11.30
2022-12-14T08:25:37.727Z,11.50
2022-12-14T08:28:09.886Z,11.10
2022-12-14T08:30:42.556Z,10.53
2022-12-14T08:33:14.952Z,10.45
2022-12-14T08:35:47.158Z,10.32
2022-12-14T08:38:19.165Z,9.85
2022-12-14T08:40:51.592Z,10.80
2022-12-14T08:43:25.246Z,10.08
2022-12-14T08:45:57.711Z,11.70
2022-12-14T08:48:29.911Z,10.80
2022-12-14T08:51:10.031Z,11.65
2022-12-14T08:53:41.960Z,11.30
2022-12-14T08:56:17.503Z,10.90
2022-12-14T08:58:49.974Z,8.60
2022-12-14T09:01:31.796Z,11.25
2022-12-14T09:04:00.694Z,9.80
2022-12-14T09:06:37.043Z,8.83
2022-12-14T09:09:16.066Z,7.75
2022-12-14T09:11:44.391Z,9.88
2022-12-14T09:14:17.222Z,9.10
2022-12-14T09:16:49.824Z,8.55
2022-12-14T09:19:23.044Z,9.93
2022-12-14T09:21:55.178Z,8.65
2022-12-14T09:24:28.522Z,10.40
2022-12-14T09:27:07.734Z,9.65
2022-12-14T09:29:39.950Z,8.98
2022-12-14T09:32:12.143Z,11.88
2022-12-14T09:34:44.653Z,9.83
2022-12-14T09:37:17.073Z,9.43
2022-12-14T09:39:49.279Z,8.50
2022-12-14T09:42:32.672Z,9.78
2022-12-14T09:45:15.202Z,7.78
2022-12-14T09:48:04.850Z,8.83
2022-12-14T09:50:38.706Z,7.75
2022-12-14T09:53:14.047Z,8.60
2022-12-14T09:55:49.371Z,5.78
2022-12-14T09:58:30.405Z,9.83
2022-12-14T10:01:25.955Z,10.15
2022-12-14T10:04:19.227Z,8.25
2022-12-14T10:06:57.223Z,8.38
2022-12-14T10:09:32.738Z,8.35
2022-12-14T10:12:23.812Z,7.90
2022-12-14T10:15:05.520Z,8.28
2022-12-14T10:17:58.715Z,6.42
2022-12-14T10:20:40.359Z,8.15
2022-12-14T10:23:23.076Z,5.55
2022-12-14T10:26:06.907Z,7.55
2022-12-14T10:28:44.954Z,9.13
2022-12-14T10:31:21.034Z,7.12
2022-12-14T10:33:55.226Z,7.40
2022-12-14T10:36:36.195Z,5.95
2022-12-14T10:39:11.728Z,7.12
2022-12-14T10:41:49.444Z,5.60
2022-12-14T10:44:36.756Z,6.20
2022-12-14T10:47:15.599Z,7.80
2022-12-14T10:49:54.366Z,7.50
2022-12-14T10:52:31.185Z,6.22
2022-12-14T10:55:07.146Z,6.33
2022-12-14T10:57:39.440Z,6.78
2022-12-14T11:00:23.485Z,6.65
2022-12-14T11:02:59.155Z,5.30
2022-12-14T11:05:46.546Z,7.67
2022-12-14T11:08:48.318Z,7.17
2022-12-14T11:11:24.568Z,6.55
2022-12-14T11:14:09.340Z,7.60
2022-12-14T11:16:42.632Z,7.33
2022-12-14T11:22:22.339Z,2.70
2022-12-14T11:24:51.603Z,5.45
2022-12-14T11:27:24.030Z,3.37
2022-12-14T11:29:56.034Z,4.20
2022-12-14T11:32:28.474Z,3.62
2022-12-14T11:35:01.024Z,4.53
2022-12-14T11:37:33.772Z,2.67
2022-12-14T11:40:07.969Z,3.10
2022-12-14T11:42:40.272Z,1.90
2022-12-14T11:45:30.576Z,2.42
2022-12-14T11:48:17.552Z,1.45
2022-12-14T11:50:51.468Z,1.10
2022-12-14T11:53:24.854Z,1.72
2022-12-14T11:56:00.511Z,1.23
2022-12-14T11:58:38.446Z,1.55
2022-12-14T12:01:16.217Z,0.90
2022-12-14T12:03:53.417Z,2.42
2022-12-14T12:06:30.958Z,1.70
2022-12-14T12:09:06.177Z,1.57
2022-12-14T12:11:39.906Z,2.08
2022-12-14T12:14:32.804Z,2.00
2022-12-14T12:17:20.091Z,1.98
2022-12-14T12:19:53.235Z,2.80
2022-12-14T12:22:26.917Z,2.87
2022-12-14T12:25:24.899Z,1.45
2022-12-14T12:27:36.087Z,1.77
2022-12-14T12:30:11.533Z,1.90
2022-12-14T12:32:50.641Z,1.35
2022-12-14T12:35:44.406Z,2.00
2022-12-14T12:38:19.445Z,2.17
2022-12-14T12:41:10.775Z,1.77
2022-12-14T12:43:52.708Z,2.17
2022-12-14T12:46:37.885Z,2.45
2022-12-14T12:49:14.134Z,1.30
2022-12-14T12:51:59.298Z,1.50
2022-12-14T12:54:49.491Z,1.95
2022-12-14T12:57:24.161Z,2.52
2022-12-14T12:59:58.851Z,2.30
2022-12-14T13:02:46.359Z,2.58
2022-12-14T13:05:45.769Z,2.80
2022-12-14T13:08:07.165Z,0.85
2022-12-14T13:11:17.352Z,1.15
2022-12-14T13:13:22.165Z,2.58
2022-12-14T13:15:57.698Z,2.58
2022-12-14T13:18:57.664Z,1.10
2022-12-14T13:21:34.987Z,2.30
2022-12-14T13:24:10.054Z,2.42
2022-12-14T13:27:01.771Z,2.30
2022-12-14T13:29:58.056Z,2.35
2022-12-14T13:32:42.080Z,2.20
2022-12-14T13:38:05.962Z,1.98
2022-12-14T13:41:08.245Z,1.90
2022-12-14T13:43:59.892Z,2.37
2022-12-14T13:46:34.194Z,1.42
2022-12-14T13:49:09.960Z,3.12
2022-12-14T13:51:45.405Z,2.20
2022-12-14T13:54:28.446Z,2.02
2022-12-14T13:57:06.550Z,2.87
2022-12-14T13:59:42.316Z,2.58
2022-12-14T14:02:34.529Z,2.02
2022-12-14T14:05:21.751Z,1.80
2022-12-14T14:08:05.654Z,1.52
2022-12-14T14:10:41.946Z,2.00
2022-12-14T14:13:31.814Z,2.55
2022-12-14T14:16:28.001Z,2.60
2022-12-14T14:18:51.524Z,2.12
2022-12-14T14:21:27.227Z,2.25
2022-12-14T14:24:01.405Z,2.05
2022-12-14T14:29:24.177Z,2.05
2022-12-14T14:32:02.167Z,2.05
2022-12-14T14:34:46.261Z,3.37
2022-12-14T14:37:24.457Z,3.10
2022-12-14T14:40:25.979Z,1.72
2022-12-14T14:42:51.832Z,2.45
2022-12-14T14:45:35.481Z,2.70
2022-12-14T14:48:16.395Z,2.75
2022-12-14T14:50:50.729Z,2.60
2022-12-14T14:53:37.133Z,2.47
2022-12-14T14:56:16.594Z,2.90
2022-12-14T14:58:49.114Z,2.00
2022-12-14T15:01:25.132Z,3.08
2022-12-14T15:04:09.078Z,2.27
2022-12-14T15:06:43.331Z,3.35
2022-12-14T15:09:24.738Z,1.70
2022-12-14T15:11:59.793Z,2.70
2022-12-14T15:14:48.419Z,3.02
2022-12-14T15:17:22.822Z,3.22
2022-12-14T15:20:01.079Z,2.30
2022-12-14T15:22:40.119Z,2.90
2022-12-14T15:25:15.593Z,3.25
2022-12-14T15:27:49.051Z,2.92
2022-12-14T15:30:24.286Z,2.77
2022-12-14T15:33:10.499Z,3.77
2022-12-14T15:35:49.421Z,3.20
2022-12-14T15:38:30.333Z,2.58
2022-12-14T15:41:09.646Z,2.25
2022-12-14T15:43:47.055Z,3.15
2022-12-14T15:46:31.683Z,3.00
2022-12-14T15:49:09.347Z,2.37
2022-12-14T15:51:43.906Z,3.45
2022-12-14T15:54:22.145Z,3.60
2022-12-14T15:57:00.182Z,2.75
2022-12-14T15:59:37.201Z,3.22
2022-12-14T16:02:25.237Z,2.62
2022-12-14T16:05:00.075Z,2.33
2022-12-14T16:07:42.110Z,2.98
2022-12-14T16:10:36.192Z,3.08
2022-12-14T16:13:11.571Z,3.62
2022-12-14T16:15:46.370Z,3.75
2022-12-14T16:18:21.344Z,3.33
2022-12-14T16:20:59.501Z,2.55
2022-12-14T16:23:45.568Z,2.77
2022-12-14T16:26:25.214Z,2.70
2022-12-14T16:29:20.753Z,3.45
2022-12-14T16:31:54.680Z,2.65
2022-12-14T16:37:30.893Z,2.90
2022-12-14T16:39:39.675Z,3.40
2022-12-14T16:42:23.248Z,3.10
2022-12-14T16:44:56.131Z,3.17
2022-12-14T16:47:40.406Z,2.72
2022-12-14T16:50:55.950Z,2.67
2022-12-14T16:53:24.518Z,2.87
2022-12-14T16:56:05.773Z,2.75
2022-12-14T16:58:38.506Z,3.10
2022-12-14T17:01:11.332Z,3.52
2022-12-14T17:03:43.767Z,2.90
2022-12-14T17:06:18.872Z,2.72
2022-12-14T17:08:51.175Z,2.75
2022-12-14T17:11:23.254Z,2.15
2022-12-14T17:13:55.596Z,3.10
2022-12-14T17:16:27.950Z,3.27
2022-12-14T17:19:00.162Z,2.98
2022-12-14T17:21:32.568Z,2.83
2022-12-14T17:24:04.976Z,3.37
2022-12-14T17:26:36.998Z,2.77
2022-12-14T17:29:15.216Z,2.83
2022-12-14T17:31:49.808Z,2.50
2022-12-14T17:34:22.520Z,3.45
2022-12-14T17:36:55.180Z,2.62
2022-12-14T17:39:28.767Z,3.52
2022-12-14T17:42:00.768Z,2.33
2022-12-14T17:44:33.251Z,3.20
2022-12-14T17:47:05.192Z,2.80
2022-12-14T17:49:37.400Z,3.17
2022-12-14T17:52:11.412Z,1.62
2022-12-14T17:54:43.664Z,2.40
2022-12-14T17:57:18.424Z,2.45
2022-12-14T17:59:52.552Z,2.20
2022-12-14T18:05:01.500Z,2.20
2022-12-14T18:07:34.172Z,3.45
2022-12-14T18:10:07.228Z,2.60
2022-12-14T18:12:39.319Z,1.62
2022-12-14T18:15:23.431Z,2.10
2022-12-14T18:17:55.829Z,2.77
2022-12-14T18:20:27.904Z,2.60
2022-12-14T18:23:00.023Z,2.60
2022-12-14T18:25:38.011Z,2.37
2022-12-14T18:28:13.871Z,3.12
2022-12-14T18:30:50.022Z,1.92
2022-12-14T18:33:24.252Z,2.60
2022-12-14T18:35:57.724Z,2.37
2022-12-14T18:38:29.940Z,2.95
2022-12-14T18:41:04.303Z,1.90
2022-12-14T18:43:46.997Z,2.37
2022-12-14T18:46:20.081Z,2.70
2022-12-14T18:48:52.466Z,2.85
2022-12-14T18:51:27.695Z,1.75
2022-12-14T18:54:01.564Z,2.90
2022-12-14T18:56:34.084Z,2.77
2022-12-14T18:59:06.609Z,2.27
2022-12-14T19:01:38.670Z,3.25
2022-12-14T19:04:11.031Z,2.58
2022-12-14T19:06:45.426Z,2.37
2022-12-14T19:09:18.239Z,2.75
2022-12-14T19:11:51.319Z,1.98
2022-12-14T19:14:24.400Z,3.22
2022-12-14T19:16:56.579Z,2.37
2022-12-14T19:19:38.197Z,3.50
2022-12-14T19:22:05.984Z,3.55
2022-12-14T19:24:37.869Z,2.67
2022-12-14T19:27:09.871Z,2.90
2022-12-14T19:29:41.903Z,3.10
2022-12-14T19:32:15.105Z,3.02
2022-12-14T19:34:47.923Z,2.47
2022-12-14T19:37:23.900Z,2.52
2022-12-14T19:39:55.896Z,3.02
2022-12-14T19:42:29.264Z,2.75
2022-12-14T19:45:01.399Z,3.17
2022-12-14T19:47:33.792Z,3.05
2022-12-14T19:50:07.647Z,2.47
2022-12-14T19:52:39.604Z,2.75
2022-12-14T19:55:13.058Z,3.12
2022-12-14T19:57:46.058Z,3.10
2022-12-14T20:00:18.180Z,2.45
2022-12-14T20:02:50.354Z,2.50
2022-12-14T20:05:22.474Z,2.50
2022-12-14T20:07:54.447Z,3.12
2022-12-14T20:10:27.345Z,2.45
2022-12-14T20:12:59.405Z,3.05
2022-12-14T20:15:33.996Z,3.08
2022-12-14T20:18:07.435Z,2.05
2022-12-14T20:20:39.421Z,2.27
2022-12-14T20:23:12.627Z,2.27
2022-12-14T20:25:46.085Z,2.20
2022-12-14T20:28:18.357Z,2.50
2022-12-14T20:30:51.766Z,2.45
2022-12-14T20:33:31.097Z,2.37
2022-12-14T20:36:05.768Z,2.20
2022-12-14T20:38:38.368Z,2.27
2022-12-14T20:41:13.052Z,2.70
2022-12-14T20:43:45.938Z,3.37
2022-12-14T20:46:35.050Z,2.40
2022-12-14T20:49:09.846Z,3.30
2022-12-14T20:51:42.994Z,3.00
2022-12-14T20:54:18.090Z,2.60
2022-12-14T20:56:50.017Z,3.25
2022-12-14T20:59:22.091Z,2.70
2022-12-14T21:01:56.685Z,3.72
2022-12-14T21:04:29.437Z,3.10
2022-12-14T21:07:01.607Z,2.70
2022-12-14T21:09:34.798Z,3.00
2022-12-14T21:12:22.029Z,3.05
2022-12-14T21:14:56.024Z,2.80
2022-12-14T21:17:30.704Z,3.75
2022-12-14T21:20:05.387Z,3.22
2022-12-14T21:22:37.340Z,2.67
2022-12-14T21:25:09.477Z,3.40
2022-12-14T21:27:42.558Z,2.70
2022-12-14T21:30:14.689Z,3.42
2022-12-14T21:32:46.960Z,3.10
2022-12-14T21:37:51.596Z,2.60
2022-12-14T21:40:41.115Z,3.58
2022-12-14T21:43:14.827Z,3.40
2022-12-14T21:45:47.093Z,4.50
2022-12-14T21:48:19.201Z,4.15
2022-12-14T21:50:51.195Z,2.65
2022-12-14T21:53:23.236Z,3.37
2022-12-14T21:55:56.767Z,3.08
2022-12-14T21:58:28.825Z,4.30
2022-12-14T22:01:02.296Z,3.37
2022-12-14T22:03:35.254Z,3.50
2022-12-14T22:06:12.271Z,3.20
2022-12-14T22:08:44.534Z,3.30
2022-12-14T22:11:16.498Z,2.98
2022-12-14T22:13:48.405Z,2.98
2022-12-14T22:16:20.384Z,3.15
2022-12-14T22:18:53.932Z,3.10
2022-12-14T22:21:26.143Z,3.00
2022-12-14T22:23:58.050Z,2.15
2022-12-14T22:26:30.110Z,2.10
2022-12-14T22:29:01.971Z,3.60
2022-12-14T22:31:34.360Z,3.72
2022-12-14T22:34:09.001Z,2.27
2022-12-14T22:36:41.023Z,1.37
2022-12-14T22:39:13.570Z,2.47
2022-12-14T22:41:46.236Z,3.62
2022-12-14T22:44:18.425Z,2.90
2022-12-14T22:46:50.584Z,3.52
2022-12-14T22:49:22.652Z,3.47
2022-12-14T22:51:54.870Z,4.10
2022-12-14T22:54:28.485Z,3.35
2022-12-14T22:57:03.407Z,2.80
2022-12-14T22:59:38.618Z,4.00
2022-12-14T23:02:12.084Z,3.17
2022-12-14T23:04:44.502Z,4.35
2022-12-14T23:07:16.583Z,4.22
2022-12-14T23:10:06.049Z,4.05
2022-12-14T23:12:55.835Z,4.12
2022-12-14T23:15:45.663Z,3.80
2022-12-14T23:18:35.140Z,3.25
2022-12-14T23:21:30.395Z,4.00
2022-12-14T23:24:20.052Z,4.95
2022-12-14T23:27:10.151Z,3.83
2022-12-14T23:29:59.969Z,3.47
2022-12-14T23:32:51.197Z,4.03
2022-12-14T23:35:41.430Z,3.87
2022-12-14T23:38:31.032Z,4.67
2022-12-14T23:41:21.383Z,4.75
2022-12-14T23:44:11.265Z,3.42
2022-12-14T23:47:00.896Z,4.85
2022-12-14T23:49:50.980Z,4.62
2022-12-14T23:52:40.706Z,3.55
2022-12-14T23:55:30.185Z,4.20
2022-12-14T23:58:20.270Z,4.78
